Time,TemperatureF,DewpointF,PressureIn,WindDirection,WindDirectionDegrees,WindSpeedMPH,WindSpeedGustMPH,Humidity,HourlyPrecipIn,Conditions,Clouds,dailyrainin,SoftwareType,DateUTC
2013-01-16 00:03:00,24.1,14.0,31.06,East,90,2.7,2.7,65,0.00,,---,0.00,VWS V13.01,2013-01-16 08:03:00,
2013-01-16 00:08:00,24.1,13.7,31.06,East,90,3.1,3.1,64,0.00,,---,0.00,VWS V13.01,2013-01-16 08:08:00,
2013-01-16 00:13:00,24.1,13.7,31.06,East,90,0.0,0.0,64,0.00,,---,0.00,VWS V13.01,2013-01-16 08:13:00,
2013-01-16 00:18:00,23.7,13.3,31.06,East,90,0.0,2.2,64,0.00,,---,0.00,VWS V13.01,2013-01-16 08:18:00,
2013-01-16 00:23:00,23.4,13.4,31.06,East,90,0.0,2.2,65,0.00,,---,0.00,VWS V13.01,2013-01-16 08:23:00,
2013-01-16 00:28:00,23.4,13.4,31.06,East,90,0.0,2.7,65,0.00,,---,0.00,VWS V13.01,2013-01-16 08:28:00,
2013-01-16 00:33:00,23.2,13.2,31.06,East,90,0.0,0.0,65,0.00,,---,0.00,VWS V13.01,2013-01-16 08:33:00,
2013-01-16 00:38:00,23.2,13.5,31.06,East,90,0.0,0.0,66,0.00,,---,0.00,VWS V13.01,2013-01-16 08:38:00,
2013-01-16 00:43:00,23.2,13.5,31.06,East,90,2.2,2.7,66,0.00,,---,0.00,VWS V13.01,2013-01-16 08:43:00,
2013-01-16 00:48:00,23.5,13.9,31.06,East,90,0.0,3.1,66,0.00,,---,0.00,VWS V13.01,2013-01-16 08:48:00,
2013-01-16 00:53:00,23.5,13.5,31.06,East,90,0.0,0.0,65,0.00,,---,0.00,VWS V13.01,2013-01-16 08:53:00,
2013-01-16 00:58:00,23.5,13.5,31.06,East,90,0.0,2.7,65,0.00,,---,0.00,VWS V13.01,2013-01-16 08:58:00,
2013-01-16 01:03:00,23.4,13.4,31.06,East,90,0.0,0.0,65,0.00,,---,0.00,VWS V13.01,2013-01-16 09:03:00,
2013-01-16 01:08:00,23.2,13.2,31.06,East,90,2.2,2.2,65,0.00,,---,0.00,VWS V13.01,2013-01-16 09:08:00,
2013-01-16 01:13:00,23.2,13.2,31.06,East,90,2.2,2.2,65,0.00,,---,0.00,VWS V13.01,2013-01-16 09:13:00,
2013-01-16 01:18:00,23.0,13.0,31.06,East,90,2.2,2.2,65,0.00,,---,0.00,VWS V13.01,2013-01-16 09:18:00,
2013-01-16 01:23:00,22.8,13.2,31.06,East,90,0.0,0.0,66,0.00,,---,0.00,VWS V13.01,2013-01-16 09:23:00,
2013-01-16 01:28:00,22.6,13.0,31.06,East,90,0.0,0.0,66,0.00,,---,0.00,VWS V13.01,2013-01-16 09:28:00,
2013-01-16 01:33:00,22.5,13.2,31.06,East,90,2.7,2.7,67,0.00,,---,0.00,VWS V13.01,2013-01-16 09:33:00,
2013-01-16 01:38:00,22.3,13.0,31.06,East,90,2.7,3.1,67,0.00,,---,0.00,VWS V13.01,2013-01-16 09:38:00,
2013-01-16 01:43:00,22.5,13.2,31.06,East,90,0.0,0.0,67,0.00,,---,0.00,VWS V13.01,2013-01-16 09:43:00,
2013-01-16 01:48:00,22.3,13.0,31.06,East,90,0.0,0.0,67,0.00,,---,0.00,VWS V13.01,2013-01-16 09:48:00,
2013-01-16 01:53:00,22.1,12.8,31.06,East,90,0.0,0.0,67,0.00,,---,0.00,VWS V13.01,2013-01-16 09:53:00,
2013-01-16 01:58:00,21.9,12.7,31.06,East,90,0.0,0.0,67,0.00,,---,0.00,VWS V13.01,2013-01-16 09:58:00,
2013-01-16 02:03:00,21.7,12.5,31.06,East,90,0.0,0.0,67,0.00,,---,0.00,VWS V13.01,2013-01-16 10:03:00,
2013-01-16 02:08:00,21.9,12.7,31.06,East,90,0.0,0.0,67,0.00,,---,0.00,VWS V13.01,2013-01-16 10:08:00,
2013-01-16 02:13:00,21.4,12.1,31.06,East,90,0.0,0.0,67,0.00,,---,0.00,VWS V13.01,2013-01-16 10:13:00,
2013-01-16 02:18:00,20.7,11.8,31.06,East,90,0.0,0.0,68,0.00,,---,0.00,VWS V13.01,2013-01-16 10:18:00,
2013-01-16 02:23:00,20.1,11.3,31.06,East,90,0.0,0.0,68,0.00,,---,0.00,VWS V13.01,2013-01-16 10:23:00,
2013-01-16 02:28:00,19.6,11.4,31.06,East,90,0.0,0.0,70,0.00,,---,0.00,VWS V13.01,2013-01-16 10:28:00,
2013-01-16 02:33:00,19.9,12.1,31.06,East,90,0.0,0.0,71,0.00,,---,0.00,VWS V13.01,2013-01-16 10:33:00,
2013-01-16 02:38:00,19.8,11.9,31.09,East,90,0.0,0.0,71,0.00,,---,0.00,VWS V13.01,2013-01-16 10:38:00,
2013-01-16 02:43:00,19.6,12.0,31.09,East,90,0.0,0.0,72,0.00,,---,0.00,VWS V13.01,2013-01-16 10:43:00,
2013-01-16 02:48:00,19.4,11.9,31.09,East,90,0.0,0.0,72,0.00,,---,0.00,VWS V13.01,2013-01-16 10:48:00,
2013-01-16 02:53:00,19.0,11.5,31.09,East,90,0.0,0.0,72,0.00,,---,0.00,VWS V13.01,2013-01-16 10:53:00,
2013-01-16 02:58:00,18.3,10.8,31.09,East,90,0.0,0.0,72,0.00,,---,0.00,VWS V13.01,2013-01-16 10:58:00,
2013-01-16 03:03:00,18.1,11.0,31.09,East,90,2.2,2.2,73,0.00,,---,0.00,VWS V13.01,2013-01-16 11:03:00,
2013-01-16 03:08:00,18.3,11.1,31.09,East,90,0.0,0.0,73,0.00,,---,0.00,VWS V13.01,2013-01-16 11:08:00,
2013-01-16 03:13:00,18.1,11.3,31.09,East,90,0.0,0.0,74,0.00,,---,0.00,VWS V13.01,2013-01-16 11:13:00,
2013-01-16 03:18:00,17.8,10.9,31.09,East,90,0.0,0.0,74,0.00,,---,0.00,VWS V13.01,2013-01-16 11:18:00,
2013-01-16 03:23:00,17.1,10.5,31.09,East,90,0.0,0.0,75,0.00,,---,0.00,VWS V13.01,2013-01-16 11:23:00,
2013-01-16 03:28:00,16.9,10.3,31.09,East,90,0.0,0.0,75,0.00,,---,0.00,VWS V13.01,2013-01-16 11:28:00,
2013-01-16 03:33:00,17.6,11.6,31.09,East,90,3.1,3.1,77,0.00,,---,0.00,VWS V13.01,2013-01-16 11:33:00,
2013-01-16 03:38:00,18.5,12.5,31.06,East,90,0.0,0.0,77,0.00,,---,0.00,VWS V13.01,2013-01-16 11:38:00,
2013-01-16 03:43:00,18.5,12.2,31.06,East,90,0.0,0.0,76,0.00,,---,0.00,VWS V13.01,2013-01-16 11:43:00,
2013-01-16 03:48:00,18.7,12.4,31.06,East,90,0.0,0.0,76,0.00,,---,0.00,VWS V13.01,2013-01-16 11:48:00,
2013-01-16 03:53:00,18.7,12.1,31.06,East,90,2.2,2.2,75,0.00,,---,0.00,VWS V13.01,2013-01-16 11:53:00,
2013-01-16 03:58:00,18.7,11.8,31.06,East,90,2.2,2.2,74,0.00,,---,0.00,VWS V13.01,2013-01-16 11:58:00,
2013-01-16 04:03:00,18.7,11.8,31.06,East,90,0.0,2.7,74,0.00,,---,0.00,VWS V13.01,2013-01-16 12:03:00,
2013-01-16 04:08:00,18.5,11.3,31.06,East,90,0.0,2.2,73,0.00,,---,0.00,VWS V13.01,2013-01-16 12:08:00,
2013-01-16 04:13:00,18.5,11.3,31.06,East,90,2.7,2.7,73,0.00,,---,0.00,VWS V13.01,2013-01-16 12:13:00,
2013-01-16 04:18:00,18.7,11.2,31.06,East,90,0.0,2.2,72,0.00,,---,0.00,VWS V13.01,2013-01-16 12:18:00,
2013-01-16 04:23:00,18.7,11.2,31.06,East,90,0.0,2.2,72,0.00,,---,0.00,VWS V13.01,2013-01-16 12:23:00,
2013-01-16 04:28:00,18.3,10.8,31.06,East,90,0.0,0.0,72,0.00,,---,0.00,VWS V13.01,2013-01-16 12:28:00,
2013-01-16 04:33:00,17.8,10.3,31.06,East,90,0.0,0.0,72,0.00,,---,0.00,VWS V13.01,2013-01-16 12:33:00,
2013-01-16 04:38:00,17.2,10.1,31.06,East,90,0.0,0.0,73,0.00,,---,0.00,VWS V13.01,2013-01-16 12:38:00,
2013-01-16 04:43:00,16.9,10.0,31.06,East,90,0.0,0.0,74,0.00,,---,0.00,VWS V13.01,2013-01-16 12:43:00,
2013-01-16 04:48:00,16.2,9.4,31.06,East,90,0.0,0.0,74,0.00,,---,0.00,VWS V13.01,2013-01-16 12:48:00,
2013-01-16 04:53:00,16.2,9.6,31.06,East,90,0.0,0.0,75,0.00,,---,0.00,VWS V13.01,2013-01-16 12:53:00,
2013-01-16 04:58:00,16.0,10.1,31.06,East,90,0.0,0.0,77,0.00,,---,0.00,VWS V13.01,2013-01-16 12:58:00,
2013-01-16 05:03:00,15.3,9.4,31.06,East,90,0.0,0.0,77,0.00,,---,0.00,VWS V13.01,2013-01-16 13:03:00,
2013-01-16 05:08:00,14.9,9.3,31.06,East,90,0.0,0.0,78,0.00,,---,0.00,VWS V13.01,2013-01-16 13:08:00,
2013-01-16 05:13:00,14.5,9.2,31.06,East,90,2.2,2.7,79,0.00,,---,0.00,VWS V13.01,2013-01-16 13:13:00,
2013-01-16 05:18:00,14.7,9.7,31.06,East,90,0.0,0.0,80,0.00,,---,0.00,VWS V13.01,2013-01-16 13:18:00,
2013-01-16 05:23:00,14.9,10.1,31.06,East,90,0.0,0.0,81,0.00,,---,0.00,VWS V13.01,2013-01-16 13:23:00,
2013-01-16 05:28:00,14.4,9.6,31.06,East,90,0.0,0.0,81,0.00,,---,0.00,VWS V13.01,2013-01-16 13:28:00,
2013-01-16 05:33:00,13.8,9.1,31.06,East,90,0.0,0.0,81,0.00,,---,0.00,VWS V13.01,2013-01-16 13:33:00,
2013-01-16 05:38:00,13.5,8.7,31.06,East,90,0.0,0.0,81,0.00,,---,0.00,VWS V13.01,2013-01-16 13:38:00,
2013-01-16 05:43:00,12.9,8.2,31.06,East,90,0.0,0.0,81,0.00,,---,0.00,VWS V13.01,2013-01-16 13:43:00,
2013-01-16 05:48:00,14.0,9.8,31.06,East,90,2.2,2.2,83,0.00,,---,0.00,VWS V13.01,2013-01-16 13:48:00,
2013-01-16 05:53:00,15.1,10.9,31.06,East,90,0.0,0.0,83,0.00,,---,0.00,VWS V13.01,2013-01-16 13:53:00,
2013-01-16 05:58:00,15.4,10.9,31.06,East,90,0.0,0.0,82,0.00,,---,0.00,VWS V13.01,2013-01-16 13:58:00,
2013-01-16 06:03:00,16.0,11.2,31.06,East,90,0.0,2.2,81,0.00,,---,0.00,VWS V13.01,2013-01-16 14:03:00,
2013-01-16 06:08:00,16.5,11.4,31.06,East,90,0.0,2.2,80,0.00,,---,0.00,VWS V13.01,2013-01-16 14:08:00,
2013-01-16 06:13:00,16.5,10.9,31.06,East,90,2.2,2.7,78,0.00,,---,0.00,VWS V13.01,2013-01-16 14:13:00,
2013-01-16 06:18:00,16.7,10.8,31.03,East,90,2.2,2.2,77,0.00,,---,0.00,VWS V13.01,2013-01-16 14:18:00,
2013-01-16 06:23:00,16.5,10.3,31.03,East,90,0.0,0.0,76,0.00,,---,0.00,VWS V13.01,2013-01-16 14:23:00,
2013-01-16 06:28:00,16.0,9.5,31.03,East,90,0.0,0.0,75,0.00,,---,0.00,VWS V13.01,2013-01-16 14:28:00,
2013-01-16 06:33:00,15.3,8.8,31.03,East,90,0.0,0.0,75,0.00,,---,0.00,VWS V13.01,2013-01-16 14:33:00,
2013-01-16 06:38:00,14.9,8.4,31.03,East,90,0.0,0.0,75,0.00,,---,0.00,VWS V13.01,2013-01-16 14:38:00,
2013-01-16 06:43:00,15.3,9.1,31.03,East,90,0.0,0.0,76,0.00,,---,0.00,VWS V13.01,2013-01-16 14:43:00,
2013-01-16 06:48:00,14.5,8.1,31.03,East,90,0.0,0.0,75,0.00,,---,0.00,VWS V13.01,2013-01-16 14:48:00,
2013-01-16 06:53:00,14.2,8.0,31.06,East,90,0.0,0.0,76,0.00,,---,0.00,VWS V13.01,2013-01-16 14:53:00,
2013-01-16 06:58:00,13.6,7.5,31.06,East,90,0.0,0.0,76,0.00,,---,0.00,VWS V13.01,2013-01-16 14:58:00,
2013-01-16 07:03:00,14.2,8.3,31.06,East,90,0.0,0.0,77,0.00,,---,0.00,VWS V13.01,2013-01-16 15:03:00,
2013-01-16 07:08:00,14.9,9.3,31.06,East,90,0.0,0.0,78,0.00,,---,0.00,VWS V13.01,2013-01-16 15:08:00,
2013-01-16 07:13:00,15.1,9.5,31.06,East,90,0.0,0.0,78,0.00,,---,0.00,VWS V13.01,2013-01-16 15:13:00,
2013-01-16 07:18:00,15.3,9.6,31.06,East,90,0.0,0.0,78,0.00,,---,0.00,VWS V13.01,2013-01-16 15:18:00,
2013-01-16 07:23:00,15.4,9.8,31.06,East,90,0.0,0.0,78,0.00,,---,0.00,VWS V13.01,2013-01-16 15:23:00,
2013-01-16 07:28:00,16.0,10.1,31.06,East,90,3.1,3.1,77,0.00,,---,0.00,VWS V13.01,2013-01-16 15:28:00,
2013-01-16 07:33:00,16.7,10.8,31.06,East,90,0.0,0.0,77,0.00,,---,0.00,VWS V13.01,2013-01-16 15:33:00,
2013-01-16 07:38:00,16.5,10.3,31.06,East,90,0.0,0.0,76,0.00,,---,0.00,VWS V13.01,2013-01-16 15:38:00,
2013-01-16 07:43:00,16.0,9.5,31.06,East,90,0.0,0.0,75,0.00,,---,0.00,VWS V13.01,2013-01-16 15:43:00,
2013-01-16 07:48:00,15.8,9.3,31.06,East,90,0.0,0.0,75,0.00,,---,0.00,VWS V13.01,2013-01-16 15:48:00,
2013-01-16 07:53:00,15.4,8.9,31.06,East,90,0.0,0.0,75,0.00,,---,0.00,VWS V13.01,2013-01-16 15:53:00,
2013-01-16 07:58:00,15.4,8.9,31.06,East,90,0.0,0.0,75,0.00,,---,0.00,VWS V13.01,2013-01-16 15:58:00,
2013-01-16 08:03:00,15.4,8.9,31.06,East,90,0.0,0.0,75,0.00,,---,0.00,VWS V13.01,2013-01-16 16:03:00,
2013-01-16 08:08:00,15.1,8.9,31.06,East,90,0.0,0.0,76,0.00,,---,0.00,VWS V13.01,2013-01-16 16:08:00,
2013-01-16 08:13:00,15.3,9.1,31.06,East,90,0.0,0.0,76,0.00,,---,0.00,VWS V13.01,2013-01-16 16:13:00,
2013-01-16 08:18:00,15.1,8.9,31.06,East,90,0.0,0.0,76,0.00,,---,0.00,VWS V13.01,2013-01-16 16:18:00,
2013-01-16 08:23:00,16.2,9.9,31.06,East,90,0.0,0.0,76,0.00,,---,0.00,VWS V13.01,2013-01-16 16:23:00,
2013-01-16 08:28:00,17.4,10.9,31.06,East,90,3.1,3.1,75,0.00,,---,0.00,VWS V13.01,2013-01-16 16:28:00,
2013-01-16 08:33:00,18.7,11.2,31.06,East,90,0.0,0.0,72,0.00,,---,0.00,VWS V13.01,2013-01-16 16:33:00,
2013-01-16 08:38:00,19.8,10.9,31.06,East,90,2.7,2.7,68,0.00,,---,0.00,VWS V13.01,2013-01-16 16:38:00,
2013-01-16 08:43:00,20.8,10.6,31.06,East,90,0.0,2.7,64,0.00,,---,0.00,VWS V13.01,2013-01-16 16:43:00,
2013-01-16 08:48:00,21.4,10.0,31.06,East,90,2.2,2.2,61,0.00,,---,0.00,VWS V13.01,2013-01-16 16:48:00,
2013-01-16 08:53:00,21.7,10.0,31.06,East,90,0.0,2.7,60,0.00,,---,0.00,VWS V13.01,2013-01-16 16:53:00,
2013-01-16 08:58:00,21.9,9.8,31.06,East,90,0.0,0.0,59,0.00,,---,0.00,VWS V13.01,2013-01-16 16:58:00,
2013-01-16 09:03:00,21.9,9.4,31.06,East,90,2.2,2.2,58,0.00,,---,0.00,VWS V13.01,2013-01-16 17:03:00,
2013-01-16 09:08:00,21.9,9.4,31.06,East,90,2.2,2.2,58,0.00,,---,0.00,VWS V13.01,2013-01-16 17:08:00,
2013-01-16 09:13:00,22.6,9.3,31.06,East,90,2.2,2.2,56,0.00,,---,0.00,VWS V13.01,2013-01-16 17:13:00,
2013-01-16 09:18:00,23.4,9.6,31.06,East,90,3.1,3.1,55,0.00,,---,0.00,VWS V13.01,2013-01-16 17:18:00,
2013-01-16 09:23:00,24.1,10.3,31.06,East,90,0.0,2.7,55,0.00,,---,0.00,VWS V13.01,2013-01-16 17:23:00,
2013-01-16 09:28:00,24.1,10.3,31.06,East,90,0.0,0.0,55,0.00,,---,0.00,VWS V13.01,2013-01-16 17:28:00,
2013-01-16 09:33:00,24.1,10.3,31.06,East,90,3.1,3.6,55,0.00,,---,0.00,VWS V13.01,2013-01-16 17:33:00,
2013-01-16 09:38:00,28.0,12.3,31.06,East,90,3.6,3.6,51,0.00,,---,0.00,VWS V13.01,2013-01-16 17:38:00,
2013-01-16 09:43:00,29.5,11.8,31.06,SE,135,5.4,5.4,47,0.00,,---,0.00,VWS V13.01,2013-01-16 17:43:00,
2013-01-16 09:48:00,30.2,11.9,31.06,SE,135,3.6,3.6,46,0.00,,---,0.00,VWS V13.01,2013-01-16 17:48:00,
2013-01-16 09:53:00,30.4,12.1,31.06,SE,135,2.2,3.6,46,0.00,,---,0.00,VWS V13.01,2013-01-16 17:53:00,
2013-01-16 09:58:00,32.2,12.7,31.06,SE,135,0.0,0.0,44,0.00,,---,0.00,VWS V13.01,2013-01-16 17:58:00,
2013-01-16 10:03:00,33.3,13.2,31.06,SE,135,2.7,3.1,43,0.00,,---,0.00,VWS V13.01,2013-01-16 18:03:00,
2013-01-16 10:08:00,33.8,13.1,31.03,SE,135,0.0,4.9,42,0.00,,---,0.00,VWS V13.01,2013-01-16 18:08:00,
2013-01-16 10:12:00,34.9,14.1,31.03,SE,135,3.6,3.6,42,0.00,,---,0.00,VWS V13.01,2013-01-16 18:12:00,
2013-01-16 10:17:00,35.6,14.2,31.03,SE,135,0.0,2.7,41,0.00,,---,0.00,VWS V13.01,2013-01-16 18:17:00,
2013-01-16 10:22:00,36.3,14.9,31.03,SE,135,0.0,2.2,41,0.00,,---,0.00,VWS V13.01,2013-01-16 18:22:00,
2013-01-16 10:27:00,37.0,15.0,31.03,SE,135,0.0,3.1,40,0.00,,---,0.00,VWS V13.01,2013-01-16 18:27:00,
2013-01-16 10:32:00,37.9,15.8,31.03,SE,135,3.1,3.1,40,0.00,,---,0.00,VWS V13.01,2013-01-16 18:32:00,
2013-01-16 10:37:00,37.6,15.5,31.03,SE,135,2.7,3.6,40,0.00,,---,0.00,VWS V13.01,2013-01-16 18:37:00,
2013-01-16 10:42:00,37.0,15.0,31.03,SE,135,0.0,2.7,40,0.00,,---,0.00,VWS V13.01,2013-01-16 18:42:00,
2013-01-16 10:47:00,36.9,14.8,31.03,SE,135,2.7,3.1,40,0.00,,---,0.00,VWS V13.01,2013-01-16 18:47:00,
2013-01-16 10:52:00,37.0,15.0,31.03,SE,135,2.7,3.1,40,0.00,,---,0.00,VWS V13.01,2013-01-16 18:52:00,
2013-01-16 10:57:00,37.4,15.3,31.03,SE,135,2.2,2.7,40,0.00,,---,0.00,VWS V13.01,2013-01-16 18:57:00,
2013-01-16 11:02:00,37.8,15.6,31.03,SE,135,0.0,3.1,40,0.00,,---,0.00,VWS V13.01,2013-01-16 19:02:00,
2013-01-16 11:07:00,38.3,16.1,31.03,SE,135,3.1,4.0,40,0.00,,---,0.00,VWS V13.01,2013-01-16 19:07:00,
2013-01-16 11:12:00,38.7,16.4,31.03,SE,135,2.2,2.2,40,0.00,,---,0.00,VWS V13.01,2013-01-16 19:12:00,
2013-01-16 11:17:00,39.6,16.7,31.03,SE,135,3.6,3.6,39,0.00,,---,0.00,VWS V13.01,2013-01-16 19:17:00,
2013-01-16 11:22:00,40.5,17.5,31.03,SE,135,0.0,2.2,39,0.00,,---,0.00,VWS V13.01,2013-01-16 19:22:00,
2013-01-16 11:27:00,40.8,17.8,31.03,SE,135,0.0,0.0,39,0.00,,---,0.00,VWS V13.01,2013-01-16 19:27:00,
2013-01-16 11:32:00,41.5,18.4,31.03,SE,135,0.0,2.2,39,0.00,,---,0.00,VWS V13.01,2013-01-16 19:32:00,
2013-01-16 11:37:00,42.4,18.6,31.03,SE,135,0.0,2.2,38,0.00,,---,0.00,VWS V13.01,2013-01-16 19:37:00,
2013-01-16 11:42:00,43.9,19.9,31.03,SE,135,2.2,2.2,38,0.00,,---,0.00,VWS V13.01,2013-01-16 19:42:00,
2013-01-16 11:47:00,45.7,20.9,31.03,SE,135,0.0,2.7,37,0.00,,---,0.00,VWS V13.01,2013-01-16 19:47:00,
2013-01-16 11:52:00,46.9,21.4,31.03,SE,135,2.7,3.1,36,0.00,,---,0.00,VWS V13.01,2013-01-16 19:52:00,
2013-01-16 11:57:00,47.7,22.0,31.03,SE,135,0.0,0.0,36,0.00,,---,0.00,VWS V13.01,2013-01-16 19:57:00,
2013-01-16 12:02:00,49.1,22.6,31.01,SE,135,0.0,2.2,35,0.00,,---,0.00,VWS V13.01,2013-01-16 20:02:00,
2013-01-16 12:07:00,49.5,22.3,31.01,SE,135,0.0,2.2,34,0.00,,---,0.00,VWS V13.01,2013-01-16 20:07:00,
2013-01-16 12:12:00,50.4,22.4,31.01,SE,135,0.0,0.0,33,0.00,,---,0.00,VWS V13.01,2013-01-16 20:12:00,
2013-01-16 12:17:00,50.7,22.0,31.01,SE,135,0.0,0.0,32,0.00,,---,0.00,VWS V13.01,2013-01-16 20:17:00,
2013-01-16 12:22:00,50.7,22.0,31.01,SE,135,0.0,0.0,32,0.00,,---,0.00,VWS V13.01,2013-01-16 20:22:00,
2013-01-16 12:27:00,49.8,21.2,31.01,SE,135,2.2,2.7,32,0.00,,---,0.00,VWS V13.01,2013-01-16 20:27:00,
2013-01-16 12:32:00,48.9,21.1,31.01,SE,135,2.7,2.7,33,0.00,,---,0.00,VWS V13.01,2013-01-16 20:32:00,
2013-01-16 12:37:00,48.7,20.9,31.01,SE,135,2.2,2.7,33,0.00,,---,0.00,VWS V13.01,2013-01-16 20:37:00,
2013-01-16 12:42:00,49.8,21.9,31.01,SE,135,3.1,3.1,33,0.00,,---,0.00,VWS V13.01,2013-01-16 20:42:00,
2013-01-16 12:47:00,50.9,22.1,31.01,SE,135,0.0,2.2,32,0.00,,---,0.00,VWS V13.01,2013-01-16 20:47:00,
2013-01-16 12:52:00,51.4,22.6,30.98,SE,135,0.0,0.0,32,0.00,,---,0.00,VWS V13.01,2013-01-16 20:52:00,
2013-01-16 12:57:00,52.3,22.6,30.98,SE,135,0.0,0.0,31,0.00,,---,0.00,VWS V13.01,2013-01-16 20:57:00,
2013-01-16 13:02:00,52.7,22.9,30.98,SE,135,0.0,2.2,31,0.00,,---,0.00,VWS V13.01,2013-01-16 21:02:00,
2013-01-16 13:07:00,53.4,23.6,30.98,SE,135,0.0,2.7,31,0.00,,---,0.00,VWS V13.01,2013-01-16 21:07:00,
2013-01-16 13:12:00,53.4,23.6,30.98,SE,135,3.1,3.1,31,0.00,,---,0.00,VWS V13.01,2013-01-16 21:12:00,
2013-01-16 13:17:00,53.6,22.9,30.98,SE,135,3.1,3.6,30,0.00,,---,0.00,VWS V13.01,2013-01-16 21:17:00,
2013-01-16 13:22:00,54.1,23.4,30.98,SE,135,2.2,2.2,30,0.00,,---,0.00,VWS V13.01,2013-01-16 21:22:00,
2013-01-16 13:27:00,54.1,24.2,30.98,SE,135,2.7,3.6,31,0.00,,---,0.00,VWS V13.01,2013-01-16 21:27:00,
2013-01-16 13:32:00,53.4,23.6,30.98,SE,135,3.1,3.6,31,0.00,,---,0.00,VWS V13.01,2013-01-16 21:32:00,
2013-01-16 13:37:00,53.4,23.6,30.98,SE,135,4.0,4.0,31,0.00,,---,0.00,VWS V13.01,2013-01-16 21:37:00,
2013-01-16 13:42:00,53.8,23.1,30.98,SE,135,3.1,3.1,30,0.00,,---,0.00,VWS V13.01,2013-01-16 21:42:00,
2013-01-16 13:47:00,53.8,23.1,30.98,SE,135,0.0,3.6,30,0.00,,---,0.00,VWS V13.01,2013-01-16 21:47:00,
2013-01-16 13:52:00,54.0,23.2,30.98,SE,135,0.0,3.1,30,0.00,,---,0.00,VWS V13.01,2013-01-16 21:52:00,
2013-01-16 13:57:00,54.7,23.9,30.98,SE,135,0.0,0.0,30,0.00,,---,0.00,VWS V13.01,2013-01-16 21:57:00,
2013-01-16 14:02:00,55.0,24.2,30.98,SE,135,0.0,0.0,30,0.00,,---,0.00,VWS V13.01,2013-01-16 22:02:00,
2013-01-16 14:07:00,54.9,23.2,30.98,SE,135,3.1,3.1,29,0.00,,---,0.00,VWS V13.01,2013-01-16 22:07:00,
2013-01-16 14:12:00,54.5,23.7,30.98,SE,135,0.0,3.1,30,0.00,,---,0.00,VWS V13.01,2013-01-16 22:12:00,
2013-01-16 14:17:00,54.7,23.1,30.98,SE,135,2.2,4.9,29,0.00,,---,0.00,VWS V13.01,2013-01-16 22:17:00,
2013-01-16 14:22:00,55.0,23.4,30.98,SE,135,2.7,3.6,29,0.00,,---,0.00,VWS V13.01,2013-01-16 22:22:00,
2013-01-16 14:27:00,54.9,23.2,30.98,SE,135,0.0,2.7,29,0.00,,---,0.00,VWS V13.01,2013-01-16 22:27:00,
2013-01-16 14:32:00,54.5,23.7,30.98,SE,135,2.2,4.0,30,0.00,,---,0.00,VWS V13.01,2013-01-16 22:32:00,
2013-01-16 14:37:00,53.8,22.3,30.98,SE,135,2.7,3.1,29,0.00,,---,0.00,VWS V13.01,2013-01-16 22:37:00,
2013-01-16 14:42:00,53.4,22.0,30.98,SE,135,0.0,2.7,29,0.00,,---,0.00,VWS V13.01,2013-01-16 22:42:00,
2013-01-16 14:47:00,53.4,22.0,30.98,SE,135,2.7,2.7,29,0.00,,---,0.00,VWS V13.01,2013-01-16 22:47:00,
2013-01-16 14:52:00,53.4,22.8,30.98,SE,135,0.0,2.7,30,0.00,,---,0.00,VWS V13.01,2013-01-16 22:52:00,
2013-01-16 14:57:00,53.6,22.1,30.98,SE,135,2.2,2.2,29,0.00,,---,0.00,VWS V13.01,2013-01-16 22:57:00,
2013-01-16 15:02:00,54.1,22.6,30.98,SE,135,2.7,2.7,29,0.00,,---,0.00,VWS V13.01,2013-01-16 23:02:00,
2013-01-16 15:07:00,54.3,22.8,30.98,SE,135,2.7,2.7,29,0.00,,---,0.00,VWS V13.01,2013-01-16 23:07:00,
2013-01-16 15:12:00,53.2,21.8,30.98,SE,135,2.7,2.7,29,0.00,,---,0.00,VWS V13.01,2013-01-16 23:12:00,
2013-01-16 15:17:00,52.3,21.0,30.98,SE,135,0.0,2.7,29,0.00,,---,0.00,VWS V13.01,2013-01-16 23:17:00,
2013-01-16 15:22:00,51.6,21.2,30.98,SE,135,3.1,3.1,30,0.00,,---,0.00,VWS V13.01,2013-01-16 23:22:00,
2013-01-16 15:27:00,51.3,20.9,30.98,SE,135,0.0,0.0,30,0.00,,---,0.00,VWS V13.01,2013-01-16 23:27:00,
2013-01-16 15:32:00,50.4,20.1,30.98,SE,135,0.0,2.7,30,0.00,,---,0.00,VWS V13.01,2013-01-16 23:32:00,
2013-01-16 15:37:00,50.2,20.0,30.98,SE,135,0.0,0.0,30,0.00,,---,0.00,VWS V13.01,2013-01-16 23:37:00,
2013-01-16 15:42:00,50.2,20.0,30.98,SE,135,2.7,2.7,30,0.00,,---,0.00,VWS V13.01,2013-01-16 23:42:00,
2013-01-16 15:47:00,49.3,19.9,30.98,SE,135,2.2,2.7,31,0.00,,---,0.00,VWS V13.01,2013-01-16 23:47:00,
2013-01-16 15:52:00,48.7,19.5,30.98,SE,135,2.2,2.7,31,0.00,,---,0.00,VWS V13.01,2013-01-16 23:52:00,
2013-01-16 15:57:00,48.6,19.3,30.98,SE,135,2.7,2.7,31,0.00,,---,0.00,VWS V13.01,2013-01-16 23:57:00,
2013-01-16 16:02:00,48.0,19.6,30.98,SE,135,0.0,0.0,32,0.00,,---,0.00,VWS V13.01,2013-01-17 00:02:00,
2013-01-16 16:07:00,47.7,19.3,30.98,SE,135,0.0,0.0,32,0.00,,---,0.00,VWS V13.01,2013-01-17 00:07:00,
2013-01-16 16:12:00,47.1,19.5,30.98,SE,135,2.2,2.2,33,0.00,,---,0.00,VWS V13.01,2013-01-17 00:12:00,
2013-01-16 16:17:00,46.8,19.2,30.98,SE,135,3.1,3.1,33,0.00,,---,0.00,VWS V13.01,2013-01-17 00:17:00,
2013-01-16 16:22:00,46.4,18.9,30.98,SE,135,2.7,2.7,33,0.00,,---,0.00,VWS V13.01,2013-01-17 00:22:00,
2013-01-16 16:27:00,45.9,18.4,30.98,SE,135,3.6,3.6,33,0.00,,---,0.00,VWS V13.01,2013-01-17 00:27:00,
2013-01-16 16:32:00,45.7,18.2,30.98,SE,135,2.7,2.7,33,0.00,,---,0.00,VWS V13.01,2013-01-17 00:32:00,
2013-01-16 16:37:00,44.8,18.1,30.98,SE,135,0.0,0.0,34,0.00,,---,0.00,VWS V13.01,2013-01-17 00:37:00,
2013-01-16 16:42:00,44.8,18.1,30.98,SE,135,0.0,0.0,34,0.00,,---,0.00,VWS V13.01,2013-01-17 00:42:00,
2013-01-16 16:47:00,43.7,17.9,30.98,SE,135,0.0,2.2,35,0.00,,---,0.00,VWS V13.01,2013-01-17 00:47:00,
2013-01-16 16:52:00,43.2,17.4,30.98,SE,135,0.0,0.0,35,0.00,,---,0.00,VWS V13.01,2013-01-17 00:52:00,
2013-01-16 16:57:00,41.7,16.8,30.98,SE,135,0.0,0.0,36,0.00,,---,0.00,VWS V13.01,2013-01-17 00:57:00,
2013-01-16 17:02:00,41.2,16.9,30.98,SE,135,0.0,0.0,37,0.00,,---,0.00,VWS V13.01,2013-01-17 01:02:00,
2013-01-16 17:07:00,40.6,17.0,30.98,SE,135,0.0,0.0,38,0.00,,---,0.00,VWS V13.01,2013-01-17 01:07:00,
2013-01-16 17:12:00,39.7,16.8,30.98,SE,135,0.0,0.0,39,0.00,,---,0.00,VWS V13.01,2013-01-17 01:12:00,
2013-01-16 17:17:00,39.6,16.7,30.98,SE,135,2.2,2.2,39,0.00,,---,0.00,VWS V13.01,2013-01-17 01:17:00,
2013-01-16 17:22:00,39.4,16.5,30.98,SE,135,0.0,2.7,39,0.00,,---,0.00,VWS V13.01,2013-01-17 01:22:00,
2013-01-16 17:27:00,39.2,16.3,30.98,SE,135,0.0,2.7,39,0.00,,---,0.00,VWS V13.01,2013-01-17 01:27:00,
2013-01-16 17:32:00,38.8,16.6,30.98,SE,135,2.7,2.7,40,0.00,,---,0.00,VWS V13.01,2013-01-17 01:32:00,
2013-01-16 17:37:00,38.3,16.1,30.98,SE,135,0.0,0.0,40,0.00,,---,0.00,VWS V13.01,2013-01-17 01:37:00,
2013-01-16 17:42:00,37.8,15.6,30.98,SE,135,0.0,0.0,40,0.00,,---,0.00,VWS V13.01,2013-01-17 01:42:00,
2013-01-16 17:47:00,37.4,15.3,30.98,SE,135,0.0,0.0,40,0.00,,---,0.00,VWS V13.01,2013-01-17 01:47:00,
2013-01-16 17:52:00,36.9,15.4,30.98,SE,135,0.0,0.0,41,0.00,,---,0.00,VWS V13.01,2013-01-17 01:52:00,
2013-01-16 17:57:00,36.1,15.3,30.98,SE,135,0.0,0.0,42,0.00,,---,0.00,VWS V13.01,2013-01-17 01:57:00,
2013-01-16 18:02:00,35.4,15.2,30.98,SE,135,0.0,0.0,43,0.00,,---,0.00,VWS V13.01,2013-01-17 02:02:00,
2013-01-16 18:07:00,35.2,15.0,30.98,SE,135,0.0,0.0,43,0.00,,---,0.00,VWS V13.01,2013-01-17 02:07:00,
2013-01-16 18:12:00,34.5,14.9,30.98,SE,135,0.0,0.0,44,0.00,,---,0.00,VWS V13.01,2013-01-17 02:12:00,
2013-01-16 18:17:00,34.5,14.9,30.98,SE,135,0.0,0.0,44,0.00,,---,0.00,VWS V13.01,2013-01-17 02:17:00,
2013-01-16 18:22:00,33.3,14.2,30.98,SE,135,0.0,0.0,45,0.00,,---,0.00,VWS V13.01,2013-01-17 02:22:00,
2013-01-16 18:27:00,32.5,14.6,30.98,SE,135,0.0,2.2,47,0.00,,---,0.00,VWS V13.01,2013-01-17 02:27:00,
2013-01-16 18:32:00,32.0,15.0,30.98,SE,135,0.0,0.0,49,0.00,,---,0.00,VWS V13.01,2013-01-17 02:32:00,
2013-01-16 18:37:00,31.5,15.0,30.98,SE,135,0.0,0.0,50,0.00,,---,0.00,VWS V13.01,2013-01-17 02:37:00,
2013-01-16 18:42:00,30.9,14.9,30.98,SE,135,0.0,0.0,51,0.00,,---,0.00,VWS V13.01,2013-01-17 02:42:00,
2013-01-16 18:47:00,29.8,14.4,30.98,SE,135,0.0,0.0,52,0.00,,---,0.00,VWS V13.01,2013-01-17 02:47:00,
2013-01-16 18:52:00,30.0,15.4,30.98,SE,135,0.0,0.0,54,0.00,,---,0.00,VWS V13.01,2013-01-17 02:52:00,
2013-01-16 18:57:00,29.7,15.1,30.98,SE,135,0.0,0.0,54,0.00,,---,0.00,VWS V13.01,2013-01-17 02:57:00,
2013-01-16 19:02:00,29.1,15.0,30.98,SE,135,0.0,0.0,55,0.00,,---,0.00,VWS V13.01,2013-01-17 03:02:00,
2013-01-16 19:07:00,29.1,15.0,30.98,SE,135,0.0,0.0,55,0.00,,---,0.00,VWS V13.01,2013-01-17 03:07:00,
2013-01-16 19:12:00,29.1,15.4,30.98,SE,135,0.0,0.0,56,0.00,,---,0.00,VWS V13.01,2013-01-17 03:12:00,
2013-01-16 19:17:00,28.6,15.3,30.98,SE,135,0.0,0.0,57,0.00,,---,0.00,VWS V13.01,2013-01-17 03:17:00,
2013-01-16 19:22:00,28.6,15.7,30.98,SE,135,0.0,0.0,58,0.00,,---,0.00,VWS V13.01,2013-01-17 03:22:00,
2013-01-16 19:27:00,28.6,16.1,30.98,SE,135,0.0,0.0,59,0.00,,---,0.00,VWS V13.01,2013-01-17 03:27:00,
2013-01-16 19:32:00,28.4,15.9,30.98,SE,135,0.0,0.0,59,0.00,,---,0.00,VWS V13.01,2013-01-17 03:32:00,
2013-01-16 19:37:00,27.7,15.6,30.98,SE,135,0.0,0.0,60,0.00,,---,0.00,VWS V13.01,2013-01-17 03:37:00,
2013-01-16 19:42:00,27.5,15.8,30.98,SE,135,0.0,0.0,61,0.00,,---,0.00,VWS V13.01,2013-01-17 03:42:00,
2013-01-16 19:47:00,27.1,15.9,30.98,SE,135,0.0,0.0,62,0.00,,---,0.00,VWS V13.01,2013-01-17 03:47:00,
2013-01-16 19:52:00,27.1,15.9,30.98,SE,135,0.0,0.0,62,0.00,,---,0.00,VWS V13.01,2013-01-17 03:52:00,
2013-01-16 19:57:00,27.3,16.0,30.98,SE,135,0.0,0.0,62,0.00,,---,0.00,VWS V13.01,2013-01-17 03:57:00,
2013-01-16 20:02:00,27.9,16.5,30.98,SE,135,0.0,0.0,62,0.00,,---,0.00,VWS V13.01,2013-01-17 04:02:00,
2013-01-16 20:07:00,28.2,16.5,30.98,SE,135,0.0,0.0,61,0.00,,---,0.00,VWS V13.01,2013-01-17 04:07:00,
2013-01-16 20:12:00,28.0,16.3,30.98,SE,135,0.0,0.0,61,0.00,,---,0.00,VWS V13.01,2013-01-17 04:12:00,
2013-01-16 20:17:00,27.7,16.0,30.98,SE,135,0.0,0.0,61,0.00,,---,0.00,VWS V13.01,2013-01-17 04:17:00,
2013-01-16 20:22:00,27.1,15.5,30.98,SE,135,0.0,0.0,61,0.00,,---,0.00,VWS V13.01,2013-01-17 04:22:00,
2013-01-16 20:27:00,27.0,15.7,30.98,SE,135,0.0,0.0,62,0.00,,---,0.00,VWS V13.01,2013-01-17 04:27:00,
2013-01-16 20:32:00,26.8,15.5,30.98,SE,135,0.0,0.0,62,0.00,,---,0.00,VWS V13.01,2013-01-17 04:32:00,
2013-01-16 20:37:00,27.1,16.2,30.98,SE,135,0.0,0.0,63,0.00,,---,0.00,VWS V13.01,2013-01-17 04:37:00,
2013-01-16 20:42:00,27.1,16.2,30.98,SE,135,0.0,0.0,63,0.00,,---,0.00,VWS V13.01,2013-01-17 04:42:00,
2013-01-16 20:47:00,26.8,16.2,30.98,SE,135,0.0,0.0,64,0.00,,---,0.00,VWS V13.01,2013-01-17 04:47:00,
2013-01-16 20:52:00,26.6,16.1,30.98,SE,135,0.0,0.0,64,0.00,,---,0.00,VWS V13.01,2013-01-17 04:52:00,
2013-01-16 20:57:00,26.8,16.2,30.98,SE,135,0.0,0.0,64,0.00,,---,0.00,VWS V13.01,2013-01-17 04:57:00,
2013-01-16 21:00:00,26.8,16.2,30.98,SE,135,0.0,0.0,64,0.00,,---,0.00,VWS V13.01,2013-01-17 05:00:00,
2013-01-16 21:01:00,26.6,16.1,30.98,SE,135,0.0,0.0,64,0.00,,---,0.00,VWS V13.01,2013-01-17 05:01:00,
2013-01-16 21:02:00,26.6,16.1,30.98,SE,135,0.0,0.0,64,0.00,,---,0.00,VWS V13.01,2013-01-17 05:02:00,
2013-01-16 21:03:00,26.6,16.1,30.98,SE,135,0.0,0.0,64,0.00,,---,0.00,VWS V13.01,2013-01-17 05:03:00,
2013-01-16 21:08:00,26.8,16.2,30.98,SE,135,0.0,0.0,64,0.00,,---,0.00,VWS V13.01,2013-01-17 05:08:00,
2013-01-16 21:13:00,26.6,16.4,30.98,SE,135,0.0,0.0,65,0.00,,---,0.00,VWS V13.01,2013-01-17 05:13:00,
2013-01-16 21:18:00,26.2,16.1,30.98,SE,135,0.0,0.0,65,0.00,,---,0.00,VWS V13.01,2013-01-17 05:18:00,
2013-01-16 21:23:00,26.2,16.4,30.98,SE,135,0.0,0.0,66,0.00,,---,0.00,VWS V13.01,2013-01-17 05:23:00,
2013-01-16 21:28:00,26.1,16.3,30.98,SE,135,0.0,0.0,66,0.00,,---,0.00,VWS V13.01,2013-01-17 05:28:00,
2013-01-16 21:33:00,26.1,16.3,30.98,SE,135,0.0,0.0,66,0.00,,---,0.00,VWS V13.01,2013-01-17 05:33:00,
2013-01-16 21:38:00,26.1,16.6,30.98,SE,135,0.0,0.0,67,0.00,,---,0.00,VWS V13.01,2013-01-17 05:38:00,
2013-01-16 21:43:00,26.2,16.8,30.98,SE,135,0.0,0.0,67,0.00,,---,0.00,VWS V13.01,2013-01-17 05:43:00,
2013-01-16 21:48:00,26.1,16.6,30.98,SE,135,0.0,0.0,67,0.00,,---,0.00,VWS V13.01,2013-01-17 05:48:00,
2013-01-16 21:53:00,26.4,17.0,30.98,SE,135,0.0,0.0,67,0.00,,---,0.00,VWS V13.01,2013-01-17 05:53:00,
2013-01-16 21:58:00,26.4,17.0,30.98,SE,135,0.0,0.0,67,0.00,,---,0.00,VWS V13.01,2013-01-17 05:58:00,
2013-01-16 22:03:00,25.9,16.1,30.98,SE,135,0.0,0.0,66,0.00,,---,0.00,VWS V13.01,2013-01-17 06:03:00,
2013-01-16 22:08:00,26.1,16.6,30.98,SE,135,0.0,0.0,67,0.00,,---,0.00,VWS V13.01,2013-01-17 06:08:00,
2013-01-16 22:13:00,25.5,16.1,30.98,SE,135,0.0,0.0,67,0.00,,---,0.00,VWS V13.01,2013-01-17 06:13:00,
2013-01-16 22:18:00,25.2,15.8,30.98,SE,135,0.0,0.0,67,0.00,,---,0.00,VWS V13.01,2013-01-17 06:18:00,
2013-01-16 22:23:00,24.8,15.8,30.98,SE,135,0.0,0.0,68,0.00,,---,0.00,VWS V13.01,2013-01-17 06:23:00,
2013-01-16 22:28:00,25.0,16.3,30.98,SE,135,0.0,0.0,69,0.00,,---,0.00,VWS V13.01,2013-01-17 06:28:00,
2013-01-16 22:33:00,25.0,16.3,30.98,SE,135,0.0,0.0,69,0.00,,---,0.00,VWS V13.01,2013-01-17 06:33:00,
2013-01-16 22:38:00,25.0,16.3,30.98,SE,135,0.0,0.0,69,0.00,,---,0.00,VWS V13.01,2013-01-17 06:38:00,
2013-01-16 22:43:00,24.8,16.1,30.98,SE,135,0.0,0.0,69,0.00,,---,0.00,VWS V13.01,2013-01-17 06:43:00,
2013-01-16 22:48:00,25.2,16.8,30.98,SE,135,0.0,0.0,70,0.00,,---,0.00,VWS V13.01,2013-01-17 06:48:00,
2013-01-16 22:53:00,25.2,16.4,30.98,SE,135,0.0,0.0,69,0.00,,---,0.00,VWS V13.01,2013-01-17 06:53:00,
2013-01-16 22:58:00,25.3,16.6,30.98,SE,135,0.0,0.0,69,0.00,,---,0.00,VWS V13.01,2013-01-17 06:58:00,
2013-01-16 23:03:00,25.3,16.6,30.98,SE,135,0.0,0.0,69,0.00,,---,0.00,VWS V13.01,2013-01-17 07:03:00,
2013-01-16 23:08:00,25.0,15.9,30.98,SE,135,0.0,0.0,68,0.00,,---,0.00,VWS V13.01,2013-01-17 07:08:00,
2013-01-16 23:13:00,24.8,16.1,30.98,SE,135,0.0,0.0,69,0.00,,---,0.00,VWS V13.01,2013-01-17 07:13:00,
2013-01-16 23:18:00,24.6,15.9,30.98,SE,135,0.0,0.0,69,0.00,,---,0.00,VWS V13.01,2013-01-17 07:18:00,
2013-01-16 23:23:00,24.4,15.7,30.98,SE,135,0.0,0.0,69,0.00,,---,0.00,VWS V13.01,2013-01-17 07:23:00,
2013-01-16 23:28:00,24.6,16.2,30.98,SE,135,0.0,0.0,70,0.00,,---,0.00,VWS V13.01,2013-01-17 07:28:00,
2013-01-16 23:33:00,24.8,16.1,30.98,SE,135,0.0,0.0,69,0.00,,---,0.00,VWS V13.01,2013-01-17 07:33:00,
2013-01-16 23:38:00,24.8,16.1,30.98,SE,135,0.0,0.0,69,0.00,,---,0.00,VWS V13.01,2013-01-17 07:38:00,
2013-01-16 23:43:00,25.0,15.9,30.98,SE,135,0.0,0.0,68,0.00,,---,0.00,VWS V13.01,2013-01-17 07:43:00,
2013-01-16 23:48:00,25.5,15.8,30.98,SE,135,0.0,0.0,66,0.00,,---,0.00,VWS V13.01,2013-01-17 07:48:00,
2013-01-16 23:53:00,25.9,15.8,30.98,SE,135,0.0,0.0,65,0.00,,---,0.00,VWS V13.01,2013-01-17 07:53:00,
2013-01-16 23:58:00,26.1,15.6,30.98,SE,135,0.0,0.0,64,0.00,,---,0.00,VWS V13.01,2013-01-17 07:58:00,